createdAt,value
2019-04-28T00:00:34.258Z,9.69
2019-04-28T00:03:03.840Z,9.67
2019-04-28T00:05:33.396Z,9.63
2019-04-28T00:08:02.917Z,9.67
2019-04-28T00:10:32.576Z,9.62
2019-04-28T00:13:02.084Z,9.57
2019-04-28T00:15:32.284Z,9.56
2019-04-28T00:18:04.125Z,9.51
2019-04-28T00:20:56.686Z,9.49
2019-04-28T00:23:31.822Z,9.47
2019-04-28T00:26:12.138Z,9.44
2019-04-28T00:28:41.772Z,9.41
2019-04-28T00:31:11.401Z,9.36
2019-04-28T00:33:43.393Z,9.37
2019-04-28T00:36:12.360Z,9.37
2019-04-28T00:38:41.859Z,9.31
2019-04-28T00:41:12.368Z,9.32
2019-04-28T00:43:41.892Z,9.33
2019-04-28T00:46:14.221Z,9.30
2019-04-28T00:48:43.642Z,9.28
2019-04-28T00:51:13.155Z,9.30
2019-04-28T00:53:42.577Z,9.24
2019-04-28T00:56:12.176Z,9.23
2019-04-28T00:58:41.830Z,9.21
2019-04-28T01:01:19.065Z,9.20
2019-04-28T01:03:48.483Z,9.17
2019-04-28T01:06:18.087Z,9.16
2019-04-28T01:08:48.746Z,9.13
2019-04-28T01:11:18.339Z,9.16
2019-04-28T01:13:47.763Z,9.16
2019-04-28T01:16:35.483Z,9.16
2019-04-28T01:19:06.687Z,9.09
2019-04-28T01:21:54.139Z,9.11
2019-04-28T01:24:25.625Z,9.10
2019-04-28T01:26:56.338Z,9.10
2019-04-28T01:29:25.801Z,9.08
2019-04-28T01:32:15.358Z,9.10
2019-04-28T01:34:44.869Z,9.11
2019-04-28T01:37:14.290Z,9.11
2019-04-28T01:39:43.812Z,9.13
2019-04-28T01:42:13.311Z,9.11
2019-04-28T01:44:42.760Z,9.10
2019-04-28T01:47:12.199Z,9.15
2019-04-28T01:49:41.644Z,9.16
2019-04-28T01:52:11.300Z,9.16
2019-04-28T01:54:40.818Z,9.18
2019-04-28T01:57:10.277Z,9.16
2019-04-28T01:59:40.451Z,9.20
2019-04-28T02:02:10.386Z,9.19
2019-04-28T02:04:40.461Z,9.19
2019-04-28T02:07:11.086Z,9.21
2019-04-28T02:09:40.873Z,9.23
2019-04-28T02:12:10.670Z,9.24
2019-04-28T02:14:40.549Z,9.24
2019-04-28T02:17:10.602Z,9.24
2019-04-28T02:19:40.946Z,9.22
2019-04-28T02:22:21.401Z,9.22
2019-04-28T02:24:51.940Z,9.19
2019-04-28T02:27:21.904Z,9.19
2019-04-28T02:29:51.870Z,9.21
2019-04-28T02:32:24.343Z,9.22
2019-04-28T02:34:52.432Z,9.24
2019-04-28T02:37:21.848Z,9.23
2019-04-28T02:39:51.307Z,9.24
2019-04-28T02:42:21.031Z,9.24
2019-04-28T02:44:51.079Z,9.22
2019-04-28T02:47:21.900Z,9.24
2019-04-28T02:49:57.129Z,9.23
2019-04-28T02:52:31.085Z,9.24
2019-04-28T02:55:03.346Z,9.24
2019-04-28T02:57:31.984Z,9.21
2019-04-28T03:00:01.440Z,9.23
2019-04-28T03:02:35.670Z,9.21
2019-04-28T03:05:06.849Z,9.22
2019-04-28T03:07:36.425Z,9.19
2019-04-28T03:10:06.014Z,9.12
2019-04-28T03:12:35.522Z,9.08
2019-04-28T03:15:06.808Z,9.05
2019-04-28T03:17:36.433Z,9.04
2019-04-28T03:20:06.827Z,9.08
2019-04-28T03:22:36.381Z,9.06
2019-04-28T03:25:11.011Z,9.04
2019-04-28T03:27:57.025Z,8.99
2019-04-28T03:30:44.410Z,8.95
2019-04-28T03:33:18.798Z,8.95
2019-04-28T03:35:46.742Z,9.02
2019-04-28T03:38:16.161Z,9.01
2019-04-28T03:40:45.603Z,8.99
2019-04-28T03:43:15.026Z,9.01
2019-04-28T03:45:55.145Z,9.03
2019-04-28T03:48:24.567Z,9.00
2019-04-28T03:50:54.087Z,8.94
2019-04-28T03:53:23.512Z,8.95
2019-04-28T03:55:53.039Z,8.97
2019-04-28T03:58:24.233Z,9.01
2019-04-28T04:00:54.118Z,9.05
2019-04-28T04:03:23.576Z,8.99
2019-04-28T04:05:53.005Z,9.00
2019-04-28T04:08:22.441Z,8.97
2019-04-28T04:11:10.890Z,8.98
2019-04-28T04:13:45.193Z,8.95
2019-04-28T04:16:25.138Z,8.87
2019-04-28T04:18:56.191Z,8.86
2019-04-28T04:21:25.775Z,8.86
2019-04-28T04:23:55.202Z,8.82
2019-04-28T04:26:24.793Z,8.77
2019-04-28T04:28:54.238Z,8.78
2019-04-28T04:31:23.667Z,8.81
2019-04-28T04:33:53.110Z,8.86
2019-04-28T04:36:23.602Z,8.90
2019-04-28T04:38:53.065Z,8.95
2019-04-28T04:41:22.484Z,8.96
2019-04-28T04:43:51.931Z,9.04
2019-04-28T04:46:23.109Z,9.10
2019-04-28T04:48:53.088Z,9.15
2019-04-28T04:51:22.546Z,9.16
2019-04-28T04:53:52.133Z,9.14
2019-04-28T04:56:21.843Z,9.16
2019-04-28T04:58:51.503Z,9.23
2019-04-28T05:01:34.791Z,9.22
2019-04-28T05:04:06.013Z,9.24
2019-04-28T05:06:41.585Z,9.24
2019-04-28T05:09:11.538Z,9.25
2019-04-28T05:11:41.089Z,9.18
2019-04-28T05:14:12.071Z,9.18
2019-04-28T05:16:41.725Z,9.18
2019-04-28T05:19:11.241Z,9.19
2019-04-28T05:21:40.666Z,9.16
2019-04-28T05:24:20.829Z,9.16
2019-04-28T05:26:51.590Z,9.19
2019-04-28T05:29:26.596Z,9.23
2019-04-28T05:31:54.726Z,9.27
2019-04-28T05:34:24.199Z,9.33
2019-04-28T05:36:54.026Z,9.36
2019-04-28T05:39:23.515Z,9.35
2019-04-28T05:41:52.963Z,9.38
2019-04-28T05:44:22.423Z,9.39
2019-04-28T05:46:51.858Z,9.38
2019-04-28T05:49:39.739Z,9.43
2019-04-28T05:52:29.906Z,9.44
2019-04-28T05:55:03.890Z,9.44
2019-04-28T05:57:34.973Z,9.41
2019-04-28T06:00:10.818Z,9.48
2019-04-28T06:02:55.913Z,9.52
2019-04-28T06:05:20.031Z,9.59
2019-04-28T06:07:57.174Z,9.55
2019-04-28T06:10:26.698Z,9.59
2019-04-28T06:12:56.120Z,9.65
2019-04-28T06:15:25.675Z,9.70
2019-04-28T06:17:55.288Z,9.69
2019-04-28T06:20:25.000Z,9.66
2019-04-28T06:22:54.520Z,9.63
2019-04-28T06:25:23.961Z,9.62
2019-04-28T06:27:54.474Z,9.64
2019-04-28T06:30:23.956Z,9.69
2019-04-28T06:32:53.402Z,9.73
2019-04-28T06:35:23.076Z,9.75
2019-04-28T06:37:52.510Z,9.80
2019-04-28T06:40:22.060Z,9.83
2019-04-28T06:42:51.477Z,9.88
2019-04-28T06:45:23.771Z,9.94
2019-04-28T06:47:53.208Z,9.93
2019-04-28T06:50:22.648Z,9.96
2019-04-28T06:52:52.110Z,10.05
2019-04-28T06:55:21.550Z,10.10
2019-04-28T06:57:50.990Z,10.14
2019-04-28T07:00:20.524Z,10.23
2019-04-28T07:02:49.956Z,10.31
2019-04-28T07:05:19.493Z,10.35
2019-04-28T07:07:49.023Z,10.40
2019-04-28T07:10:18.497Z,10.41
2019-04-28T07:12:47.976Z,10.37
2019-04-28T07:15:17.404Z,10.37
2019-04-28T07:17:46.865Z,10.39
2019-04-28T07:20:23.890Z,10.24
2019-04-28T07:22:53.448Z,10.40
2019-04-28T07:25:22.907Z,10.41
2019-04-28T07:27:52.370Z,10.47
2019-04-28T07:30:21.931Z,10.33
2019-04-28T07:32:53.460Z,10.34
2019-04-28T07:35:22.638Z,10.39
2019-04-28T07:37:52.139Z,10.38
2019-04-28T07:40:21.585Z,10.47
2019-04-28T07:42:51.033Z,10.58
2019-04-28T07:45:22.373Z,10.72
2019-04-28T07:47:53.517Z,10.71
2019-04-28T07:50:23.080Z,10.74
2019-04-28T07:53:00.178Z,10.82
2019-04-28T07:55:29.599Z,10.90
2019-04-28T07:57:59.441Z,11.02
2019-04-28T08:00:30.587Z,11.01
2019-04-28T08:03:00.464Z,10.97
2019-04-28T08:05:29.947Z,11.25
2019-04-28T08:07:59.413Z,11.41
2019-04-28T08:10:31.461Z,11.45
2019-04-28T08:13:00.907Z,11.52
2019-04-28T08:15:31.489Z,11.82
2019-04-28T08:18:00.988Z,11.82
2019-04-28T08:20:30.436Z,11.84
2019-04-28T08:22:59.882Z,11.72
2019-04-28T08:25:29.307Z,11.81
2019-04-28T08:27:58.827Z,12.00
2019-04-28T08:30:28.357Z,12.18
2019-04-28T08:32:59.446Z,12.35
2019-04-28T08:35:28.861Z,12.21
2019-04-28T08:37:58.306Z,12.21
2019-04-28T08:40:28.986Z,12.35
2019-04-28T08:42:58.436Z,12.48
2019-04-28T08:45:27.850Z,12.49
2019-04-28T08:47:58.108Z,12.60
2019-04-28T08:50:30.321Z,12.74
2019-04-28T08:53:00.842Z,12.98
2019-04-28T08:55:30.259Z,13.14
2019-04-28T08:57:59.690Z,12.99
2019-04-28T09:00:29.172Z,12.97
2019-04-28T09:02:58.630Z,12.87
2019-04-28T09:05:28.064Z,12.87
2019-04-28T09:07:57.496Z,13.17
2019-04-28T09:10:27.000Z,13.42
2019-04-28T09:12:56.987Z,13.62
2019-04-28T09:15:26.382Z,13.53
2019-04-28T09:17:55.820Z,13.31
2019-04-28T09:20:25.343Z,13.30
2019-04-28T09:22:54.821Z,13.41
2019-04-28T09:25:24.295Z,13.59
2019-04-28T09:27:53.706Z,13.62
2019-04-28T09:30:23.294Z,13.52
2019-04-28T09:32:52.717Z,13.16
2019-04-28T09:35:22.173Z,13.18
2019-04-28T09:37:51.657Z,13.39
2019-04-28T09:40:21.165Z,13.52
2019-04-28T09:43:01.301Z,13.78
2019-04-28T09:45:32.503Z,13.49
2019-04-28T09:48:02.009Z,13.43
2019-04-28T09:50:33.063Z,13.61
2019-04-28T09:53:02.517Z,13.87
2019-04-28T09:55:32.054Z,13.93
2019-04-28T09:58:01.488Z,14.25
2019-04-28T10:00:30.973Z,14.10
2019-04-28T10:03:00.485Z,14.00
2019-04-28T10:05:29.995Z,13.48
2019-04-28T10:07:59.471Z,13.41
2019-04-28T10:10:28.972Z,13.24
2019-04-28T10:12:58.386Z,13.10
2019-04-28T10:15:27.895Z,12.87
2019-04-28T10:17:57.379Z,12.84
2019-04-28T10:20:26.886Z,12.84
2019-04-28T10:22:57.973Z,13.08
2019-04-28T10:25:27.485Z,13.30
2019-04-28T10:27:56.990Z,13.52
2019-04-28T10:30:26.431Z,13.93
2019-04-28T10:32:55.917Z,14.12
2019-04-28T10:35:25.427Z,14.11
2019-04-28T10:37:54.905Z,14.16
2019-04-28T10:40:37.238Z,13.95
2019-04-28T10:43:08.532Z,14.09
2019-04-28T10:45:48.876Z,14.17
2019-04-28T10:48:19.243Z,14.13
2019-04-28T10:50:48.891Z,13.83
2019-04-28T10:53:20.419Z,13.78
2019-04-28T10:55:49.935Z,13.75
2019-04-28T10:58:19.798Z,13.28
2019-04-28T11:00:49.307Z,13.20
2019-04-28T11:03:18.748Z,13.11
2019-04-28T11:05:48.194Z,13.19
2019-04-28T11:08:25.271Z,13.15
2019-04-28T11:10:55.175Z,13.30
2019-04-28T11:13:24.670Z,13.38
2019-04-28T11:15:54.261Z,13.45
2019-04-28T11:18:23.821Z,13.55
2019-04-28T11:20:53.344Z,13.59
2019-04-28T11:23:23.322Z,13.54
2019-04-28T11:25:52.805Z,13.39
2019-04-28T11:28:22.294Z,13.31
2019-04-28T11:30:51.825Z,13.08
2019-04-28T11:33:29.148Z,12.95
2019-04-28T11:35:58.765Z,12.60
2019-04-28T11:38:28.188Z,12.58
2019-04-28T11:40:58.837Z,12.49
2019-04-28T11:43:29.356Z,12.48
2019-04-28T11:45:58.797Z,12.55
2019-04-28T11:48:28.389Z,12.57
2019-04-28T11:50:57.873Z,12.62
2019-04-28T11:53:27.469Z,12.53
2019-04-28T11:55:56.890Z,12.55
2019-04-28T11:58:26.413Z,12.49
2019-04-28T12:00:55.938Z,12.49
2019-04-28T12:03:25.442Z,12.45
2019-04-28T12:05:54.958Z,12.37
2019-04-28T12:08:24.489Z,12.37
2019-04-28T12:10:55.699Z,12.38
2019-04-28T12:13:31.074Z,12.24
2019-04-28T12:16:07.249Z,12.27
2019-04-28T12:18:51.004Z,12.32
2019-04-28T12:21:34.568Z,12.44
2019-04-28T12:24:04.097Z,12.62
2019-04-28T12:26:34.566Z,12.70
2019-04-28T12:29:04.327Z,13.01
2019-04-28T12:31:34.335Z,13.18
2019-04-28T12:34:05.171Z,13.30
2019-04-28T12:36:34.651Z,13.50
2019-04-28T12:39:10.392Z,13.76
2019-04-28T12:41:39.825Z,14.00
2019-04-28T12:44:10.879Z,14.10
2019-04-28T12:46:41.888Z,14.19
2019-04-28T12:49:14.070Z,14.41
2019-04-28T12:51:46.100Z,14.47
2019-04-28T12:54:17.260Z,14.57
2019-04-28T12:56:46.764Z,14.56
2019-04-28T12:59:18.864Z,14.60
2019-04-28T13:01:56.088Z,14.72
2019-04-28T13:04:32.998Z,14.92
2019-04-28T13:07:08.183Z,15.16
2019-04-28T13:09:37.676Z,15.02
2019-04-28T13:12:10.557Z,14.99
2019-04-28T13:14:40.048Z,14.90
2019-04-28T13:17:09.561Z,15.00
2019-04-28T13:19:39.295Z,15.06
2019-04-28T13:22:08.760Z,15.14
2019-04-28T13:24:38.260Z,15.37
2019-04-28T13:27:10.166Z,15.35
2019-04-28T13:29:39.576Z,15.43
2019-04-28T13:32:09.050Z,15.51
2019-04-28T13:34:40.985Z,15.60
2019-04-28T13:37:12.207Z,15.74
2019-04-28T13:39:58.607Z,16.01
2019-04-28T13:42:28.060Z,16.31
2019-04-28T13:44:59.280Z,16.60
2019-04-28T13:47:28.868Z,16.63
2019-04-28T13:50:00.110Z,16.26
2019-04-28T13:52:29.770Z,15.96
2019-04-28T13:55:16.333Z,15.64
2019-04-28T13:57:45.740Z,15.75
2019-04-28T14:00:16.966Z,15.65
2019-04-28T14:02:49.661Z,15.88
2019-04-28T14:05:32.845Z,15.91
2019-04-28T14:08:02.369Z,15.90
2019-04-28T14:10:31.774Z,15.68
2019-04-28T14:13:01.204Z,15.66
2019-04-28T14:15:31.139Z,15.72
2019-04-28T14:18:00.633Z,15.67
2019-04-28T14:20:30.209Z,15.79
2019-04-28T14:22:59.756Z,15.93
2019-04-28T14:25:29.224Z,15.97
2019-04-28T14:27:59.181Z,15.79
2019-04-28T14:30:28.735Z,15.58
2019-04-28T14:32:58.293Z,15.50
2019-04-28T14:35:27.729Z,15.27
2019-04-28T14:37:57.141Z,15.24
2019-04-28T14:40:26.709Z,15.25
2019-04-28T14:42:56.099Z,15.15
2019-04-28T14:45:28.634Z,15.10
2019-04-28T14:47:58.178Z,15.01
2019-04-28T14:50:30.319Z,14.92
2019-04-28T14:53:01.842Z,14.95
2019-04-28T14:55:32.493Z,14.96
2019-04-28T14:58:02.166Z,14.81
2019-04-28T15:00:43.949Z,14.74
2019-04-28T15:03:14.966Z,14.64
2019-04-28T15:05:52.018Z,14.46
2019-04-28T15:08:25.816Z,14.39
2019-04-28T15:10:56.897Z,14.35
2019-04-28T15:13:26.901Z,14.29
2019-04-28T15:15:58.980Z,14.13
2019-04-28T15:18:30.048Z,14.04
2019-04-28T15:20:59.551Z,14.08
2019-04-28T15:23:30.476Z,14.14
2019-04-28T15:25:59.890Z,14.22
2019-04-28T15:28:29.334Z,14.48
2019-04-28T15:30:58.759Z,14.55
2019-04-28T15:33:28.190Z,14.57
2019-04-28T15:35:57.643Z,14.21
2019-04-28T15:38:27.064Z,14.28
2019-04-28T15:40:56.664Z,14.23
2019-04-28T15:43:26.066Z,13.78
2019-04-28T15:45:55.552Z,13.85
2019-04-28T15:48:24.990Z,13.74
2019-04-28T15:50:54.438Z,13.53
2019-04-28T15:53:23.950Z,13.31
2019-04-28T15:56:01.122Z,13.38
2019-04-28T15:58:33.614Z,13.24
2019-04-28T16:01:03.094Z,13.33
2019-04-28T16:03:32.610Z,13.01
2019-04-28T16:06:02.192Z,13.14
2019-04-28T16:08:34.751Z,13.18
2019-04-28T16:11:04.495Z,13.21
2019-04-28T16:13:35.759Z,13.26
2019-04-28T16:16:05.388Z,13.22
2019-04-28T16:18:34.841Z,13.16
2019-04-28T16:21:04.422Z,13.22
2019-04-28T16:23:34.027Z,13.17
2019-04-28T16:26:03.511Z,13.20
2019-04-28T16:28:32.955Z,13.22
2019-04-28T16:31:02.394Z,13.27
2019-04-28T16:33:35.043Z,13.27
2019-04-28T16:36:04.607Z,13.28
2019-04-28T16:38:35.585Z,13.31
2019-04-28T16:41:16.944Z,13.33
2019-04-28T16:43:58.909Z,13.37
2019-04-28T16:46:32.520Z,13.51
2019-04-28T16:49:04.852Z,13.73
2019-04-28T16:51:34.305Z,13.95
2019-04-28T16:54:06.477Z,13.95
2019-04-28T16:56:45.154Z,13.87
2019-04-28T16:59:32.179Z,13.85
2019-04-28T17:02:03.259Z,13.88
2019-04-28T17:04:33.214Z,13.97
2019-04-28T17:07:03.881Z,13.94
2019-04-28T17:09:33.255Z,13.87
2019-04-28T17:12:07.358Z,13.78
2019-04-28T17:14:41.388Z,13.73
2019-04-28T17:17:10.902Z,13.56
2019-04-28T17:19:41.961Z,13.48
2019-04-28T17:22:11.460Z,13.41
2019-04-28T17:24:40.967Z,13.42
2019-04-28T17:27:15.973Z,13.28
2019-04-28T17:29:47.753Z,13.14
2019-04-28T17:32:18.309Z,13.12
2019-04-28T17:34:47.910Z,13.17
2019-04-28T17:37:17.497Z,13.09
2019-04-28T17:39:47.062Z,13.01
2019-04-28T17:42:18.799Z,13.01
2019-04-28T17:44:48.745Z,12.91
2019-04-28T17:47:19.841Z,12.99
2019-04-28T17:49:49.280Z,12.91
2019-04-28T17:52:19.418Z,12.80
2019-04-28T17:54:50.550Z,12.80
2019-04-28T17:57:23.130Z,12.75
2019-04-28T17:59:54.284Z,12.74
2019-04-28T18:02:26.424Z,12.68
2019-04-28T18:05:12.561Z,12.66
2019-04-28T18:07:45.394Z,12.66
2019-04-28T18:10:15.772Z,12.66
2019-04-28T18:12:45.332Z,12.57
2019-04-28T18:15:20.240Z,12.49
2019-04-28T18:17:51.372Z,12.46
2019-04-28T18:20:21.880Z,12.36
2019-04-28T18:22:51.448Z,12.32
2019-04-28T18:25:22.509Z,12.28
2019-04-28T18:27:51.950Z,12.22
2019-04-28T18:30:23.083Z,12.18
2019-04-28T18:33:03.559Z,12.13
2019-04-28T18:35:37.566Z,12.06
2019-04-28T18:38:14.566Z,11.97
2019-04-28T18:40:51.661Z,11.86
2019-04-28T18:43:39.227Z,11.74
2019-04-28T18:46:08.734Z,11.67
2019-04-28T18:48:38.245Z,11.59
2019-04-28T18:51:07.877Z,11.50
2019-04-28T18:53:37.397Z,11.41
2019-04-28T18:56:08.321Z,11.39
2019-04-28T18:58:37.963Z,11.40
2019-04-28T19:01:18.455Z,11.40
2019-04-28T19:03:47.895Z,11.38
2019-04-28T19:06:18.598Z,11.32
2019-04-28T19:09:21.411Z,11.28
2019-04-28T19:11:58.258Z,11.20
2019-04-28T19:14:45.404Z,11.21
2019-04-28T19:17:16.557Z,11.08
2019-04-28T19:19:46.081Z,11.08
2019-04-28T19:22:15.617Z,11.02
2019-04-28T19:24:45.234Z,10.94
2019-04-28T19:27:14.683Z,10.92
2019-04-28T19:29:44.244Z,10.92
2019-04-28T19:32:13.751Z,10.82
2019-04-28T19:34:43.253Z,10.73
2019-04-28T19:37:12.848Z,10.66
2019-04-28T19:39:42.352Z,10.56
2019-04-28T19:42:12.203Z,10.46
2019-04-28T19:44:41.832Z,10.40
2019-04-28T19:47:11.336Z,10.33
2019-04-28T19:49:41.389Z,10.20
2019-04-28T19:52:11.011Z,10.20
2019-04-28T19:54:42.176Z,10.17
2019-04-28T19:57:19.133Z,10.13
2019-04-28T20:00:06.334Z,10.12
2019-04-28T20:02:39.024Z,10.07
2019-04-28T20:05:08.676Z,9.98
2019-04-28T20:07:40.867Z,9.88
2019-04-28T20:10:09.844Z,9.80
2019-04-28T20:12:39.532Z,9.78
2019-04-28T20:15:09.174Z,9.77
2019-04-28T20:17:38.842Z,9.73
2019-04-28T20:20:09.294Z,9.68
2019-04-28T20:22:38.798Z,9.60
2019-04-28T20:25:08.623Z,9.59
2019-04-28T20:27:38.275Z,9.58
2019-04-28T20:30:08.746Z,9.59
2019-04-28T20:32:47.558Z,9.60
2019-04-28T20:35:18.846Z,9.58
2019-04-28T20:37:52.894Z,9.50
2019-04-28T20:40:30.197Z,9.45
2019-04-28T20:43:07.517Z,9.37
2019-04-28T20:45:37.174Z,9.27
2019-04-28T20:48:06.688Z,9.19
2019-04-28T20:50:37.778Z,9.05
2019-04-28T20:53:07.250Z,8.98
2019-04-28T20:55:36.775Z,8.90
2019-04-28T20:58:06.882Z,8.90
2019-04-28T21:00:36.651Z,8.89
2019-04-28T21:03:06.296Z,8.89
2019-04-28T21:05:35.792Z,8.89
2019-04-28T21:08:05.378Z,8.86
2019-04-28T21:10:38.089Z,8.81
2019-04-28T21:13:06.419Z,8.78
2019-04-28T21:15:36.208Z,8.82
2019-04-28T21:18:05.713Z,8.78
2019-04-28T21:20:35.158Z,8.76
2019-04-28T21:23:04.670Z,8.75
2019-04-28T21:25:34.096Z,8.76
2019-04-28T21:28:05.122Z,8.79
2019-04-28T21:30:37.320Z,8.80
2019-04-28T21:33:06.759Z,8.79
2019-04-28T21:35:36.182Z,8.79
2019-04-28T21:38:05.680Z,8.73
2019-04-28T21:40:35.671Z,8.67
2019-04-28T21:43:09.885Z,8.60
2019-04-28T21:45:43.980Z,8.56
2019-04-28T21:48:16.121Z,8.49
2019-04-28T21:50:45.534Z,8.43
2019-04-28T21:53:17.697Z,8.36
2019-04-28T21:55:47.134Z,8.39
2019-04-28T21:58:32.317Z,8.43
2019-04-28T22:00:52.872Z,8.47
2019-04-28T22:03:24.788Z,8.41
2019-04-28T22:05:56.726Z,8.40
2019-04-28T22:08:26.176Z,8.37
2019-04-28T22:10:55.591Z,8.33
2019-04-28T22:13:25.603Z,8.30
2019-04-28T22:15:55.042Z,8.20
2019-04-28T22:18:24.464Z,8.14
2019-04-28T22:20:54.585Z,8.09
2019-04-28T22:23:28.514Z,8.07
2019-04-28T22:25:57.958Z,8.04
2019-04-28T22:28:28.637Z,8.00
2019-04-28T22:30:57.999Z,7.99
2019-04-28T22:33:27.449Z,7.99
2019-04-28T22:35:56.874Z,8.04
2019-04-28T22:38:26.285Z,8.06
2019-04-28T22:40:56.300Z,8.04
2019-04-28T22:43:27.686Z,8.02
2019-04-28T22:45:58.640Z,7.98
2019-04-28T22:48:28.084Z,7.96
2019-04-28T22:50:57.512Z,7.90
2019-04-28T22:53:28.890Z,7.80
2019-04-28T22:56:07.500Z,7.73
2019-04-28T22:58:41.861Z,7.67
2019-04-28T23:01:14.558Z,7.63
2019-04-28T23:03:45.706Z,7.60
2019-04-28T23:06:15.282Z,7.61
2019-04-28T23:08:44.774Z,7.66
2019-04-28T23:11:14.364Z,7.72
2019-04-28T23:13:46.853Z,7.75
2019-04-28T23:16:16.433Z,7.77
2019-04-28T23:18:46.020Z,7.82
2019-04-28T23:21:18.247Z,7.79
2019-04-28T23:23:47.745Z,7.79
2019-04-28T23:26:17.188Z,7.77
2019-04-28T23:28:49.313Z,7.73
2019-04-28T23:31:18.735Z,7.70
2019-04-28T23:33:48.188Z,7.69
2019-04-28T23:36:17.623Z,7.67
2019-04-28T23:38:48.107Z,7.66
2019-04-28T23:41:37.400Z,7.68
2019-04-28T23:44:06.989Z,7.73
2019-04-28T23:46:56.071Z,7.76
2019-04-28T23:49:27.160Z,7.73
2019-04-28T23:52:13.418Z,7.68
2019-04-28T23:54:50.559Z,7.63
2019-04-28T23:57:20.075Z,7.58
2019-04-28T23:59:51.107Z,7.57
